createdAt,value
2023-02-28T00:00:21.217Z,5.07
2023-02-28T00:02:48.189Z,5.12
2023-02-28T00:05:17.387Z,4.97
2023-02-28T00:07:44.447Z,4.96
2023-02-28T00:10:14.348Z,4.80
2023-02-28T00:12:41.570Z,4.77
2023-02-28T00:15:11.936Z,4.88
2023-02-28T00:17:38.913Z,5.12
2023-02-28T00:20:11.046Z,5.04
2023-02-28T00:22:39.518Z,4.98
2023-02-28T00:25:08.016Z,4.72
2023-02-28T00:27:36.129Z,4.59
2023-02-28T00:30:02.856Z,4.52
2023-02-28T00:32:29.503Z,4.59
2023-02-28T00:34:56.389Z,4.68
2023-02-28T00:37:23.018Z,4.53
2023-02-28T00:39:49.737Z,4.51
2023-02-28T00:42:16.807Z,4.35
2023-02-28T00:44:43.538Z,4.34
2023-02-28T00:47:10.181Z,4.39
2023-02-28T00:49:37.077Z,4.25
2023-02-28T00:52:03.875Z,4.33
2023-02-28T00:54:30.571Z,4.24
2023-02-28T00:56:57.190Z,4.16
2023-02-28T00:59:23.860Z,4.01
2023-02-28T01:01:50.564Z,4.10
2023-02-28T01:04:17.381Z,4.33
2023-02-28T01:06:44.509Z,4.32
2023-02-28T01:09:11.719Z,4.23
2023-02-28T01:11:38.478Z,4.26
2023-02-28T01:14:05.284Z,4.23
2023-02-28T01:16:31.994Z,4.33
2023-02-28T01:18:59.053Z,4.30
2023-02-28T01:21:25.768Z,4.29
2023-02-28T01:23:52.522Z,4.41
2023-02-28T01:26:22.521Z,4.35
2023-02-28T01:28:50.670Z,4.42
2023-02-28T01:31:19.219Z,4.46
2023-02-28T01:33:46.653Z,4.55
2023-02-28T01:36:17.930Z,4.50
2023-02-28T01:38:45.078Z,4.53
2023-02-28T01:41:21.133Z,4.57
2023-02-28T01:43:47.644Z,4.63
2023-02-28T01:46:15.408Z,4.60
2023-02-28T01:48:49.136Z,4.55
2023-02-28T01:51:23.942Z,4.56
2023-02-28T01:53:55.285Z,4.64
2023-02-28T01:56:27.297Z,4.52
2023-02-28T01:58:55.187Z,4.48
2023-02-28T02:01:23.546Z,4.43
2023-02-28T02:03:56.367Z,4.45
2023-02-28T02:06:30.259Z,4.47
2023-02-28T02:08:57.101Z,4.26
2023-02-28T02:11:26.423Z,4.13
2023-02-28T02:14:05.176Z,4.27
2023-02-28T02:16:34.436Z,4.47
2023-02-28T02:19:19.796Z,4.44
2023-02-28T02:22:20.560Z,4.53
2023-02-28T02:25:05.911Z,4.41
2023-02-28T02:28:05.962Z,4.38
2023-02-28T02:30:32.502Z,4.36
2023-02-28T02:33:45.611Z,4.32
2023-02-28T02:36:21.138Z,4.29
2023-02-28T02:39:03.369Z,4.12
2023-02-28T02:41:59.250Z,4.00
2023-02-28T02:44:32.571Z,4.24
2023-02-28T02:47:05.772Z,4.24
2023-02-28T02:49:34.276Z,3.63
2023-02-28T02:52:06.593Z,4.08
2023-02-28T02:54:36.402Z,4.29
2023-02-28T02:57:10.153Z,4.24
2023-02-28T02:59:38.752Z,4.35
2023-02-28T03:02:09.714Z,4.33
2023-02-28T03:04:43.488Z,4.47
2023-02-28T03:07:10.491Z,4.58
2023-02-28T03:09:37.096Z,4.44
2023-02-28T03:12:04.953Z,4.47
2023-02-28T03:14:55.505Z,4.42
2023-02-28T03:17:31.969Z,4.50
2023-02-28T03:20:08.420Z,4.50
2023-02-28T03:22:53.534Z,4.76
2023-02-28T03:25:38.727Z,4.72
2023-02-28T03:28:38.085Z,4.73
2023-02-28T03:31:21.939Z,4.65
2023-02-28T03:33:56.227Z,4.52
2023-02-28T03:36:30.120Z,4.90
2023-02-28T03:39:03.682Z,4.86
2023-02-28T03:41:53.625Z,4.76
2023-02-28T03:44:30.051Z,4.74
2023-02-28T03:47:06.031Z,4.80
2023-02-28T03:49:48.844Z,4.88
2023-02-28T03:52:15.668Z,4.78
2023-02-28T03:54:49.358Z,4.81
2023-02-28T03:57:44.577Z,5.10
2023-02-28T04:00:16.738Z,5.06
2023-02-28T04:02:43.395Z,4.79
2023-02-28T04:05:10.072Z,5.00
2023-02-28T04:07:36.816Z,4.77
2023-02-28T04:10:04.851Z,4.87
2023-02-28T04:12:31.473Z,4.74
2023-02-28T04:14:58.059Z,4.93
2023-02-28T04:17:24.653Z,5.05
2023-02-28T04:19:51.336Z,5.10
2023-02-28T04:22:18.872Z,5.10
2023-02-28T04:24:45.956Z,4.93
2023-02-28T04:27:12.578Z,4.78
2023-02-28T04:29:39.257Z,4.85
2023-02-28T04:32:06.233Z,4.79
2023-02-28T04:34:33.901Z,4.78
2023-02-28T04:37:17.038Z,4.85
2023-02-28T04:39:44.721Z,4.65
2023-02-28T04:42:12.849Z,4.44
2023-02-28T04:44:39.392Z,4.71
2023-02-28T04:47:06.256Z,4.61
2023-02-28T04:49:33.386Z,4.65
2023-02-28T04:51:59.972Z,4.68
2023-02-28T04:54:26.699Z,4.66
2023-02-28T04:56:53.374Z,4.67
2023-02-28T04:59:20.005Z,4.80
2023-02-28T05:01:49.446Z,4.89
2023-02-28T05:04:16.563Z,4.83
2023-02-28T05:06:43.392Z,4.97
2023-02-28T05:09:12.612Z,5.10
2023-02-28T05:11:40.556Z,5.21
2023-02-28T05:14:12.300Z,5.01
2023-02-28T05:16:38.987Z,5.23
2023-02-28T05:19:06.068Z,5.25
2023-02-28T05:21:35.825Z,5.06
2023-02-28T05:24:05.879Z,5.12
2023-02-28T05:26:35.991Z,5.24
2023-02-28T05:29:02.858Z,5.03
2023-02-28T05:31:29.955Z,5.02
2023-02-28T05:33:57.063Z,5.14
2023-02-28T05:36:24.043Z,4.56
2023-02-28T05:38:53.388Z,4.87
2023-02-28T05:41:21.074Z,4.58
2023-02-28T05:43:52.424Z,4.95
2023-02-28T05:46:19.379Z,4.94
2023-02-28T05:48:48.943Z,4.41
2023-02-28T05:51:16.842Z,4.55
2023-02-28T05:53:44.060Z,4.45
2023-02-28T05:56:11.130Z,5.11
2023-02-28T05:58:37.927Z,4.95
2023-02-28T06:01:23.044Z,5.19
2023-02-28T06:03:50.024Z,5.34
2023-02-28T06:06:16.862Z,5.24
2023-02-28T06:08:45.743Z,5.27
2023-02-28T06:11:12.696Z,5.26
2023-02-28T06:13:40.061Z,4.97
2023-02-28T06:16:06.873Z,4.95
2023-02-28T06:18:33.801Z,4.96
2023-02-28T06:21:00.551Z,5.06
2023-02-28T06:23:27.390Z,5.64
2023-02-28T06:25:54.356Z,5.54
2023-02-28T06:28:21.141Z,5.09
2023-02-28T06:30:48.055Z,5.60
2023-02-28T06:33:14.780Z,5.17
2023-02-28T06:35:45.752Z,5.18
2023-02-28T06:38:12.778Z,5.19
2023-02-28T06:40:39.520Z,5.71
2023-02-28T06:43:06.288Z,5.57
2023-02-28T06:45:33.189Z,5.52
2023-02-28T06:48:01.217Z,5.78
2023-02-28T06:50:30.476Z,5.83
2023-02-28T06:52:57.607Z,5.37
2023-02-28T06:55:24.434Z,5.70
2023-02-28T06:57:51.752Z,6.18
2023-02-28T07:00:18.616Z,6.19
2023-02-28T07:02:45.672Z,5.91
2023-02-28T07:05:12.425Z,6.27
2023-02-28T07:07:41.627Z,6.32
2023-02-28T07:10:08.912Z,6.33
2023-02-28T07:12:37.311Z,6.30
2023-02-28T07:15:05.690Z,6.30
2023-02-28T07:17:32.430Z,6.16
2023-02-28T07:19:59.100Z,5.89
2023-02-28T07:22:26.009Z,6.17
2023-02-28T07:24:52.902Z,5.77
2023-02-28T07:27:24.785Z,5.84
2023-02-28T07:29:51.530Z,5.67
2023-02-28T07:32:18.475Z,6.09
2023-02-28T07:34:45.682Z,6.10
2023-02-28T07:37:12.535Z,5.58
2023-02-28T07:39:39.419Z,6.10
2023-02-28T07:42:07.738Z,6.16
2023-02-28T07:44:34.396Z,6.20
2023-02-28T07:47:01.108Z,5.90
2023-02-28T07:49:27.964Z,6.01
2023-02-28T07:51:54.826Z,6.29
2023-02-28T07:54:21.630Z,6.13
2023-02-28T07:56:48.312Z,6.37
2023-02-28T07:59:15.008Z,6.65
2023-02-28T08:01:41.702Z,6.42
2023-02-28T08:04:08.392Z,6.75
2023-02-28T08:06:35.100Z,6.39
2023-02-28T08:09:01.857Z,6.62
2023-02-28T08:11:28.771Z,6.71
2023-02-28T08:13:56.116Z,7.16
2023-02-28T08:16:23.420Z,6.59
2023-02-28T08:18:52.033Z,6.85
2023-02-28T08:21:18.863Z,6.90
2023-02-28T08:23:48.860Z,6.81
2023-02-28T08:26:17.984Z,6.77
2023-02-28T08:28:45.473Z,6.94
2023-02-28T08:31:15.464Z,6.81
2023-02-28T08:33:43.143Z,6.67
2023-02-28T08:36:10.419Z,6.74
2023-02-28T08:38:38.341Z,6.74
2023-02-28T08:41:08.285Z,7.03
2023-02-28T08:43:35.827Z,6.75
2023-02-28T08:46:02.576Z,7.21
2023-02-28T08:48:30.952Z,7.05
2023-02-28T08:51:06.629Z,7.30
2023-02-28T08:53:34.091Z,7.44
2023-02-28T08:56:03.310Z,7.01
2023-02-28T08:58:30.192Z,7.05
2023-02-28T09:00:57.164Z,7.29
2023-02-28T09:03:25.379Z,7.13
2023-02-28T09:06:00.669Z,6.99
2023-02-28T09:08:31.368Z,7.40
2023-02-28T09:11:00.667Z,7.30
2023-02-28T09:13:28.941Z,7.36
2023-02-28T09:15:55.685Z,7.58
2023-02-28T09:18:22.514Z,7.58
2023-02-28T09:20:49.159Z,8.00
2023-02-28T09:23:15.950Z,7.70
2023-02-28T09:25:51.356Z,8.10
2023-02-28T09:28:18.086Z,7.76
2023-02-28T09:30:51.158Z,7.94
2023-02-28T09:33:21.703Z,7.92
2023-02-28T09:35:51.696Z,8.09
2023-02-28T09:38:18.788Z,8.34
2023-02-28T09:40:51.449Z,8.87
2023-02-28T09:43:21.362Z,9.07
2023-02-28T09:46:01.985Z,9.26
2023-02-28T09:48:38.519Z,9.37
2023-02-28T09:51:22.631Z,9.55
2023-02-28T09:53:53.377Z,9.40
2023-02-28T09:56:29.425Z,9.76
2023-02-28T09:59:02.430Z,9.81
2023-02-28T10:01:40.353Z,9.77
2023-02-28T10:04:35.936Z,9.98
2023-02-28T10:07:08.339Z,9.89
2023-02-28T10:09:37.265Z,10.41
2023-02-28T10:12:10.701Z,9.89
2023-02-28T10:14:40.889Z,10.18
2023-02-28T10:17:16.275Z,10.26
2023-02-28T10:20:02.324Z,10.09
2023-02-28T10:22:41.176Z,10.28
2023-02-28T10:25:24.410Z,10.49
2023-02-28T10:27:55.141Z,10.46
2023-02-28T10:30:21.952Z,11.03
2023-02-28T10:32:54.648Z,11.02
2023-02-28T10:35:27.071Z,10.77
2023-02-28T10:38:01.868Z,10.98
2023-02-28T10:40:36.598Z,10.90
2023-02-28T10:43:04.889Z,10.75
2023-02-28T10:45:35.021Z,10.02
2023-02-28T10:48:15.063Z,10.05
2023-02-28T10:50:50.964Z,10.63
2023-02-28T10:53:26.748Z,10.71
2023-02-28T10:56:11.456Z,10.65
2023-02-28T10:58:57.268Z,10.61
2023-02-28T11:01:26.446Z,10.63
2023-02-28T11:03:54.050Z,10.19
2023-02-28T11:06:24.256Z,10.67
2023-02-28T11:08:56.515Z,10.25
2023-02-28T11:11:25.876Z,10.39
2023-02-28T11:14:05.651Z,9.56
2023-02-28T11:16:38.028Z,9.88
2023-02-28T11:19:21.777Z,10.06
2023-02-28T11:22:06.446Z,10.34
2023-02-28T11:24:40.800Z,10.44
2023-02-28T11:27:08.423Z,10.25
2023-02-28T11:29:36.035Z,10.19
2023-02-28T11:32:04.855Z,10.58
2023-02-28T11:34:33.302Z,10.55
2023-02-28T11:37:01.830Z,10.55
2023-02-28T11:39:29.276Z,10.31
2023-02-28T11:42:18.016Z,10.21
2023-02-28T11:45:22.844Z,10.64
2023-02-28T11:48:20.879Z,10.71
2023-02-28T11:51:12.102Z,10.25
2023-02-28T11:54:13.064Z,10.53
2023-02-28T11:56:49.050Z,10.21
2023-02-28T11:59:46.851Z,10.38
2023-02-28T12:02:29.385Z,10.32
2023-02-28T12:05:32.175Z,10.36
2023-02-28T12:08:12.008Z,10.51
2023-02-28T12:10:54.469Z,10.03
2023-02-28T12:13:42.744Z,10.44
2023-02-28T12:16:39.902Z,10.47
2023-02-28T12:19:29.434Z,10.26
2023-02-28T12:22:16.680Z,10.19
2023-02-28T12:25:07.758Z,10.51
2023-02-28T12:27:39.732Z,10.36
2023-02-28T12:30:17.365Z,10.82
2023-02-28T12:32:49.177Z,10.78
2023-02-28T12:35:36.228Z,10.78
2023-02-28T12:38:28.202Z,11.00
2023-02-28T12:41:01.304Z,11.08
2023-02-28T12:43:36.054Z,10.73
2023-02-28T12:46:18.888Z,10.66
2023-02-28T12:48:56.542Z,9.98
2023-02-28T12:51:25.102Z,9.93
2023-02-28T12:54:26.049Z,10.57
2023-02-28T12:57:14.523Z,10.66
2023-02-28T12:59:57.110Z,10.44
2023-02-28T13:02:41.904Z,10.51
2023-02-28T13:05:20.835Z,10.51
2023-02-28T13:08:24.567Z,10.51
2023-02-28T13:11:10.046Z,10.22
2023-02-28T13:14:07.759Z,10.22
2023-02-28T13:17:15.832Z,10.21
2023-02-28T13:19:57.857Z,10.37
2023-02-28T13:22:36.569Z,10.53
2023-02-28T13:25:03.451Z,10.13
2023-02-28T13:27:41.695Z,10.38
2023-02-28T13:30:48.811Z,10.46
2023-02-28T13:33:40.779Z,10.43
2023-02-28T13:36:10.712Z,10.49
2023-02-28T13:38:40.317Z,10.12
2023-02-28T13:41:38.691Z,10.53
2023-02-28T13:44:27.490Z,10.65
2023-02-28T13:50:07.203Z,9.81
2023-02-28T13:53:23.688Z,10.43
2023-02-28T13:56:35.601Z,9.67
2023-02-28T14:00:24.889Z,9.71
2023-02-28T14:03:18.530Z,10.41
2023-02-28T14:05:45.859Z,10.31
2023-02-28T14:08:22.007Z,9.63
2023-02-28T14:10:51.275Z,10.01
2023-02-28T14:13:48.452Z,10.32
2023-02-28T14:16:19.077Z,10.19
2023-02-28T14:19:13.189Z,9.56
2023-02-28T14:21:52.289Z,9.63
2023-02-28T14:24:34.454Z,10.00
2023-02-28T14:27:32.326Z,9.58
2023-02-28T14:30:36.540Z,10.06
2023-02-28T14:33:27.722Z,9.90
2023-02-28T14:36:02.679Z,9.89
2023-02-28T14:38:58.283Z,9.78
2023-02-28T14:41:38.499Z,9.36
2023-02-28T14:44:28.861Z,9.26
2023-02-28T14:47:06.540Z,9.73
2023-02-28T14:49:46.607Z,9.34
2023-02-28T14:52:25.391Z,9.28
2023-02-28T14:54:58.525Z,9.47
2023-02-28T14:57:40.082Z,9.52
2023-02-28T15:00:24.356Z,9.33
2023-02-28T15:02:55.153Z,9.25
2023-02-28T15:05:28.509Z,9.43
2023-02-28T15:08:16.297Z,9.36
2023-02-28T15:10:56.751Z,9.25
2023-02-28T15:13:24.718Z,9.22
2023-02-28T15:16:03.159Z,9.18
2023-02-28T15:18:33.580Z,9.21
2023-02-28T15:21:05.701Z,9.04
2023-02-28T15:23:33.795Z,9.11
2023-02-28T15:26:01.405Z,8.84
2023-02-28T15:28:29.525Z,8.73
2023-02-28T15:31:04.499Z,8.40
2023-02-28T15:33:33.757Z,8.29
2023-02-28T15:36:13.750Z,8.27
2023-02-28T15:38:40.849Z,7.76
2023-02-28T15:41:26.835Z,7.70
2023-02-28T15:44:28.067Z,8.10
2023-02-28T15:47:29.352Z,7.69
2023-02-28T15:50:04.005Z,7.61
2023-02-28T15:52:45.118Z,7.41
2023-02-28T15:55:20.246Z,7.38
2023-02-28T15:57:51.221Z,7.17
2023-02-28T16:00:23.534Z,6.97
2023-02-28T16:02:50.255Z,7.07
2023-02-28T16:05:35.319Z,6.79
2023-02-28T16:08:17.322Z,6.57
2023-02-28T16:10:44.021Z,6.96
2023-02-28T16:13:15.134Z,6.93
2023-02-28T16:15:44.283Z,6.59
2023-02-28T16:18:14.724Z,6.50
2023-02-28T16:20:41.724Z,6.38
2023-02-28T16:23:09.249Z,6.33
2023-02-28T16:25:39.747Z,6.55
2023-02-28T16:28:21.814Z,6.56
2023-02-28T16:30:48.621Z,6.59
2023-02-28T16:33:15.457Z,6.50
2023-02-28T16:35:42.095Z,6.66
2023-02-28T16:38:08.743Z,6.18
2023-02-28T16:40:37.179Z,6.21
2023-02-28T16:43:09.241Z,6.53
2023-02-28T16:45:35.956Z,6.49
2023-02-28T16:48:02.668Z,6.05
2023-02-28T16:50:31.124Z,6.52
2023-02-28T16:52:57.769Z,6.34
2023-02-28T16:55:26.620Z,6.18
2023-02-28T16:57:56.116Z,6.32
2023-02-28T17:00:24.098Z,5.98
2023-02-28T17:02:50.930Z,6.52
2023-02-28T17:05:19.769Z,6.66
2023-02-28T17:07:47.568Z,6.77
2023-02-28T17:10:20.538Z,6.69
2023-02-28T17:12:47.506Z,6.76
2023-02-28T17:15:16.198Z,6.32
2023-02-28T17:17:44.417Z,6.05
2023-02-28T17:20:15.772Z,6.73
2023-02-28T17:22:42.452Z,6.69
2023-02-28T17:25:11.501Z,6.69
2023-02-28T17:27:38.695Z,6.70
2023-02-28T17:30:30.412Z,6.67
2023-02-28T17:32:57.964Z,6.32
2023-02-28T17:35:25.326Z,5.98
2023-02-28T17:37:52.590Z,6.09
2023-02-28T17:40:22.239Z,6.48
2023-02-28T17:42:50.427Z,6.40
2023-02-28T17:45:17.309Z,6.16
2023-02-28T17:47:47.748Z,5.80
2023-02-28T17:50:18.570Z,6.24
2023-02-28T17:52:45.460Z,6.29
2023-02-28T17:55:13.659Z,6.18
2023-02-28T17:57:42.765Z,6.12
2023-02-28T18:00:19.806Z,6.27
2023-02-28T18:02:46.975Z,5.71
2023-02-28T18:05:13.938Z,6.11
2023-02-28T18:07:41.599Z,6.01
2023-02-28T18:10:20.274Z,5.63
2023-02-28T18:12:49.113Z,5.61
2023-02-28T18:15:19.074Z,5.18
2023-02-28T18:17:46.001Z,5.82
2023-02-28T18:20:13.153Z,5.62
2023-02-28T18:22:41.297Z,6.00
2023-02-28T18:25:11.812Z,5.30
2023-02-28T18:27:39.257Z,6.03
2023-02-28T18:30:06.569Z,6.11
2023-02-28T18:32:33.399Z,6.08
2023-02-28T18:35:00.377Z,5.72
2023-02-28T18:37:28.052Z,6.07
2023-02-28T18:39:54.953Z,6.06
2023-02-28T18:42:21.812Z,5.92
2023-02-28T18:44:48.800Z,6.04
2023-02-28T18:47:15.489Z,5.69
2023-02-28T18:49:42.260Z,5.68
2023-02-28T18:52:08.886Z,5.65
2023-02-28T18:54:36.235Z,5.96
2023-02-28T18:57:02.905Z,5.69
2023-02-28T18:59:30.164Z,5.89
2023-02-28T19:01:58.800Z,5.60
2023-02-28T19:04:27.035Z,5.35
2023-02-28T19:06:55.464Z,5.05
2023-02-28T19:09:22.292Z,5.59
2023-02-28T19:11:49.401Z,5.89
2023-02-28T19:14:17.477Z,5.33
2023-02-28T19:16:45.661Z,5.85
2023-02-28T19:19:14.220Z,5.77
2023-02-28T19:21:44.737Z,5.09
2023-02-28T19:24:12.407Z,5.05
2023-02-28T19:26:39.415Z,5.36
2023-02-28T19:29:06.337Z,5.49
2023-02-28T19:31:33.735Z,5.70
2023-02-28T19:34:01.388Z,5.39
2023-02-28T19:36:28.555Z,5.10
2023-02-28T19:38:55.379Z,5.57
2023-02-28T19:41:22.103Z,5.58
2023-02-28T19:43:49.113Z,5.28
2023-02-28T19:46:16.260Z,5.75
2023-02-28T19:48:44.912Z,5.34
2023-02-28T19:51:13.495Z,5.63
2023-02-28T19:53:41.989Z,5.81
2023-02-28T19:56:09.781Z,5.85
2023-02-28T19:58:36.964Z,5.79
2023-02-28T20:01:17.519Z,5.80
2023-02-28T20:03:48.046Z,5.74
2023-02-28T20:06:15.242Z,5.69
2023-02-28T20:08:42.395Z,5.39
2023-02-28T20:11:15.775Z,5.61
2023-02-28T20:13:42.605Z,5.63
2023-02-28T20:16:10.947Z,5.73
2023-02-28T20:18:39.590Z,5.62
2023-02-28T20:21:09.488Z,5.55
2023-02-28T20:23:38.277Z,5.30
2023-02-28T20:26:05.202Z,5.45
2023-02-28T20:28:32.109Z,5.29
2023-02-28T20:30:58.864Z,5.65
2023-02-28T20:33:25.653Z,5.28
2023-02-28T20:35:59.621Z,5.42
2023-02-28T20:38:26.458Z,5.19
2023-02-28T20:41:00.151Z,5.61
2023-02-28T20:43:27.536Z,5.58
2023-02-28T20:45:57.325Z,5.51
2023-02-28T20:48:28.130Z,5.52
2023-02-28T20:50:56.443Z,5.21
2023-02-28T20:53:25.010Z,5.35
2023-02-28T20:56:07.667Z,5.34
2023-02-28T20:58:37.133Z,5.65
2023-02-28T21:01:18.406Z,5.16
2023-02-28T21:03:50.550Z,5.76
2023-02-28T21:06:19.313Z,5.29
2023-02-28T21:08:46.332Z,5.28
2023-02-28T21:11:16.220Z,5.70
2023-02-28T21:13:44.612Z,5.69
2023-02-28T21:16:13.919Z,5.53
2023-02-28T21:18:41.176Z,5.18
2023-02-28T21:21:11.487Z,5.64
2023-02-28T21:23:38.735Z,5.27
2023-02-28T21:26:08.640Z,5.56
2023-02-28T21:28:36.004Z,5.20
2023-02-28T21:31:05.026Z,5.62
2023-02-28T21:33:32.328Z,5.38
2023-02-28T21:36:03.166Z,5.07
2023-02-28T21:38:30.346Z,5.49
2023-02-28T21:40:57.037Z,5.20
2023-02-28T21:43:23.769Z,5.04
2023-02-28T21:45:50.463Z,5.40
2023-02-28T21:48:17.584Z,5.40
2023-02-28T21:50:54.388Z,5.41
2023-02-28T21:53:20.984Z,5.22
2023-02-28T21:55:47.662Z,5.19
2023-02-28T21:58:14.336Z,5.24
2023-02-28T22:00:41.842Z,5.01
2023-02-28T22:03:08.570Z,4.97
2023-02-28T22:05:35.480Z,5.43
2023-02-28T22:08:05.273Z,5.38
2023-02-28T22:10:34.364Z,5.40
2023-02-28T22:13:03.637Z,5.39
2023-02-28T22:15:31.720Z,4.99
2023-02-28T22:17:59.065Z,5.36
2023-02-28T22:20:25.733Z,5.13
2023-02-28T22:22:52.432Z,5.03
2023-02-28T22:25:19.411Z,4.59
2023-02-28T22:27:46.129Z,5.15
2023-02-28T22:30:13.138Z,5.21
2023-02-28T22:32:39.788Z,4.70
2023-02-28T22:35:07.227Z,5.13
2023-02-28T22:37:34.327Z,4.88
2023-02-28T22:40:01.099Z,4.83
2023-02-28T22:42:27.776Z,5.22
2023-02-28T22:44:54.408Z,5.20
2023-02-28T22:47:22.399Z,4.71
2023-02-28T22:49:49.090Z,4.52
2023-02-28T22:52:15.780Z,5.16
2023-02-28T22:54:42.455Z,5.17
2023-02-28T22:57:09.081Z,4.86
2023-02-28T22:59:37.993Z,5.23
2023-02-28T23:02:04.659Z,4.98
2023-02-28T23:04:31.369Z,5.13
2023-02-28T23:06:58.673Z,5.21
2023-02-28T23:09:25.336Z,5.25
2023-02-28T23:11:52.295Z,5.25
2023-02-28T23:14:20.451Z,5.10
2023-02-28T23:16:49.846Z,5.19
2023-02-28T23:19:19.931Z,5.15
2023-02-28T23:21:46.889Z,5.08
2023-02-28T23:24:15.959Z,4.96
2023-02-28T23:26:46.453Z,5.14
2023-02-28T23:29:14.878Z,5.18
2023-02-28T23:31:41.952Z,5.10
2023-02-28T23:34:09.597Z,4.96
2023-02-28T23:36:38.276Z,4.48
2023-02-28T23:39:06.319Z,4.76
2023-02-28T23:41:33.212Z,4.89
2023-02-28T23:43:59.803Z,5.03
2023-02-28T23:46:27.173Z,4.99
2023-02-28T23:48:53.789Z,4.50
2023-02-28T23:51:21.874Z,5.05
2023-02-28T23:53:51.491Z,4.82
2023-02-28T23:56:21.311Z,5.04
2023-02-28T23:58:48.396Z,4.65
